CheckWX is a tool to help pilots better visualize weather data.  It is not intended as a substitute for an official pre-flight weather briefing.

05:11:54 UTC

KFYV METAR
Drake Field Airport
Fayetteville, Arkansas, USA
Current

19 mins ago

KFYV 180453Z AUTO 16006G15KT 10SM CLR 27/21 A2990 RMK AO2 SLP107 T02720211
Observed
Aug-18 @ 04:53 UTC
Wind
  • 160° at 6 KTS
  • Gusting to 15 KTS
Visibility
10 SM
Flight Rules
VFR
Cloud Levels
  • Clear skies
Temperature
27°C / 81°F
Dewpoint
21°C / 70°F
Heat Index
29°C / 85°F
Humidity
70%
Altimeter
29.9" Hg
Pressure
1012.52 hPa
Previous

1 hour ago

KFYV 180353Z AUTO 17007KT 10SM CLR 27/21 A2990 RMK AO2 SLP108 T02720211
Observed
Aug-18 @ 03:53 UTC
Wind
  • 170° at 7 KTS
Visibility
10 SM
Flight Rules
VFR
Cloud Levels
  • Clear skies
Temperature
27°C / 81°F
Dewpoint
21°C / 70°F
Heat Index
29°C / 85°F
Humidity
70%
Altimeter
29.9" Hg
Pressure
1012.52 hPa
Previous

2 hours ago

KFYV 180253Z AUTO 20004KT 10SM CLR 26/21 A2989 RMK AO2 SLP103 T02610211 53010
Observed
Aug-18 @ 02:53 UTC
Wind
  • 200° at 4 KTS
Visibility
10 SM
Flight Rules
VFR
Cloud Levels
  • Clear skies
Temperature
26°C / 79°F
Dewpoint
21°C / 70°F
Humidity
74%
Altimeter
29.89" Hg
Pressure
1012.22 hPa